createdAt,value
2018-05-26T00:00:30.496Z,14.60
2018-05-26T00:01:30.473Z,14.53
2018-05-26T00:02:30.445Z,14.57
2018-05-26T00:03:30.422Z,14.53
2018-05-26T00:04:30.398Z,14.52
2018-05-26T00:05:30.371Z,14.45
2018-05-26T00:06:30.346Z,14.48
2018-05-26T00:07:30.322Z,14.48
2018-05-26T00:08:30.297Z,14.44
2018-05-26T00:09:30.271Z,14.42
2018-05-26T00:10:30.248Z,14.52
2018-05-26T00:11:30.226Z,14.49
2018-05-26T00:12:30.197Z,14.49
2018-05-26T00:13:30.172Z,14.52
2018-05-26T00:14:30.147Z,14.49
2018-05-26T00:15:30.122Z,14.44
2018-05-26T00:16:30.097Z,14.48
2018-05-26T00:17:30.075Z,14.41
2018-05-26T00:18:30.069Z,14.45
2018-05-26T00:19:30.022Z,14.42
2018-05-26T00:20:30.013Z,14.49
2018-05-26T00:21:29.973Z,14.44
2018-05-26T00:22:30.350Z,14.48
2018-05-26T00:23:29.924Z,14.44
2018-05-26T00:24:29.906Z,14.53
2018-05-26T00:25:29.919Z,14.49
2018-05-26T00:26:29.847Z,14.54
2018-05-26T00:27:29.825Z,14.52
2018-05-26T00:28:29.948Z,14.46
2018-05-26T00:29:29.780Z,14.52
2018-05-26T00:30:29.754Z,14.48
2018-05-26T00:31:29.724Z,14.44
2018-05-26T00:32:29.698Z,14.46
2018-05-26T00:33:29.676Z,14.49
2018-05-26T00:34:29.651Z,14.46
2018-05-26T00:35:29.623Z,14.48
2018-05-26T00:36:29.598Z,14.49
2018-05-26T00:37:29.573Z,14.52
2018-05-26T00:38:29.547Z,14.52
2018-05-26T00:39:29.536Z,14.56
2018-05-26T00:40:29.521Z,14.46
2018-05-26T00:41:29.474Z,14.53
2018-05-26T00:42:29.448Z,14.49
2018-05-26T00:43:29.425Z,14.52
2018-05-26T00:44:29.398Z,14.52
2018-05-26T00:45:29.373Z,14.49
2018-05-26T00:46:29.350Z,14.52
2018-05-26T00:47:29.323Z,14.41
2018-05-26T00:48:29.298Z,14.41
2018-05-26T00:49:29.274Z,14.46
2018-05-26T00:50:29.249Z,14.49
2018-05-26T00:51:29.223Z,14.44
2018-05-26T00:52:29.199Z,14.44
2018-05-26T00:53:29.173Z,14.46
2018-05-26T00:54:29.148Z,14.44
2018-05-26T00:55:29.124Z,14.52
2018-05-26T00:56:29.100Z,14.35
2018-05-26T00:57:29.080Z,14.52
2018-05-26T00:58:29.049Z,14.44
2018-05-26T00:59:29.023Z,14.46
2018-05-26T01:00:28.998Z,14.41
2018-05-26T01:01:28.973Z,14.41
2018-05-26T01:02:28.953Z,14.35
2018-05-26T01:03:28.923Z,14.34
2018-05-26T01:04:28.898Z,14.45
2018-05-26T01:05:28.873Z,14.38
2018-05-26T01:06:28.848Z,14.24
2018-05-26T01:07:28.825Z,14.30
2018-05-26T01:08:28.798Z,14.34
2018-05-26T01:09:28.974Z,14.30
2018-05-26T01:10:28.748Z,14.34
2018-05-26T01:11:28.723Z,14.31
2018-05-26T01:12:28.698Z,14.30
2018-05-26T01:13:28.674Z,14.38
2018-05-26T01:14:28.648Z,14.31
2018-05-26T01:15:28.628Z,14.30
2018-05-26T01:16:28.599Z,14.35
2018-05-26T01:17:28.573Z,14.29
2018-05-26T01:18:28.750Z,14.31
2018-05-26T01:19:28.524Z,14.41
2018-05-26T01:20:28.498Z,14.38
2018-05-26T01:21:28.476Z,14.29
2018-05-26T01:22:28.448Z,14.26
2018-05-26T01:23:28.423Z,14.31
2018-05-26T01:24:28.400Z,14.24
2018-05-26T01:25:28.384Z,14.20
2018-05-26T01:26:28.353Z,14.24
2018-05-26T01:27:28.324Z,14.27
2018-05-26T01:28:28.299Z,14.21
2018-05-26T01:29:28.274Z,14.30
2018-05-26T01:30:28.252Z,14.16
2018-05-26T01:31:28.222Z,14.17
2018-05-26T01:32:28.198Z,14.19
2018-05-26T01:33:28.174Z,14.17
2018-05-26T01:34:28.147Z,14.21
2018-05-26T01:35:28.122Z,14.13
2018-05-26T01:36:28.097Z,14.24
2018-05-26T01:37:28.275Z,14.17
2018-05-26T01:38:28.048Z,14.21
2018-05-26T01:39:28.026Z,14.19
2018-05-26T01:40:28.002Z,14.09
2018-05-26T01:41:27.973Z,14.12
2018-05-26T01:42:27.947Z,14.09
2018-05-26T01:43:27.922Z,14.13
2018-05-26T01:44:27.897Z,14.12
2018-05-26T01:45:27.872Z,14.11
2018-05-26T01:46:27.849Z,14.08
2018-05-26T01:47:27.822Z,14.01
2018-05-26T01:48:27.797Z,14.01
2018-05-26T01:49:27.772Z,13.98
2018-05-26T01:50:27.746Z,13.96
2018-05-26T01:51:27.721Z,14.05
2018-05-26T01:52:27.697Z,13.99
2018-05-26T01:53:27.673Z,13.96
2018-05-26T01:54:27.645Z,13.96
2018-05-26T01:55:27.620Z,13.99
2018-05-26T01:56:27.601Z,13.98
2018-05-26T01:57:27.571Z,13.98
2018-05-26T01:58:27.544Z,13.94
2018-05-26T01:59:27.520Z,13.98
2018-05-26T02:00:27.496Z,13.93
2018-05-26T02:01:27.486Z,13.99
2018-05-26T02:02:27.447Z,13.93
2018-05-26T02:03:27.425Z,13.94
2018-05-26T02:04:27.394Z,13.96
2018-05-26T02:05:27.378Z,13.98
2018-05-26T02:06:27.353Z,13.91
2018-05-26T02:07:27.322Z,13.80
2018-05-26T02:08:27.296Z,13.83
2018-05-26T02:09:27.269Z,13.87
2018-05-26T02:10:27.248Z,13.87
2018-05-26T02:11:27.219Z,13.90
2018-05-26T02:12:27.193Z,13.87
2018-05-26T02:13:27.169Z,13.84
2018-05-26T02:14:27.141Z,13.83
2018-05-26T02:15:27.118Z,13.84
2018-05-26T02:16:27.097Z,13.69
2018-05-26T02:17:27.067Z,13.68
2018-05-26T02:18:27.041Z,13.76
2018-05-26T02:19:27.016Z,13.66
2018-05-26T02:20:26.991Z,13.69
2018-05-26T02:21:26.966Z,13.71
2018-05-26T02:22:26.941Z,13.68
2018-05-26T02:23:26.915Z,13.69
2018-05-26T02:24:26.895Z,13.72
2018-05-26T02:25:26.869Z,13.75
2018-05-26T02:26:26.839Z,13.65
2018-05-26T02:27:26.814Z,13.54
2018-05-26T02:28:26.789Z,13.72
2018-05-26T02:29:26.764Z,13.68
2018-05-26T02:30:26.738Z,13.71
2018-05-26T02:31:26.759Z,13.61
2018-05-26T02:32:26.692Z,13.69
2018-05-26T02:33:26.664Z,13.62
2018-05-26T02:34:26.637Z,13.65
2018-05-26T02:35:26.612Z,13.65
2018-05-26T02:36:26.587Z,13.65
2018-05-26T02:37:26.562Z,13.53
2018-05-26T02:38:26.540Z,13.55
2018-05-26T02:39:26.517Z,13.62
2018-05-26T02:40:26.494Z,13.57
2018-05-26T02:41:26.461Z,13.59
2018-05-26T02:42:26.584Z,13.46
2018-05-26T02:43:26.409Z,13.43
2018-05-26T02:44:26.384Z,13.55
2018-05-26T02:45:26.363Z,13.47
2018-05-26T02:46:26.333Z,13.55
2018-05-26T02:47:26.309Z,13.57
2018-05-26T02:48:26.288Z,13.54
2018-05-26T02:49:26.257Z,13.61
2018-05-26T02:50:26.234Z,13.53
2018-05-26T02:51:26.208Z,13.57
2018-05-26T02:52:26.183Z,13.65
2018-05-26T02:53:26.156Z,13.57
2018-05-26T02:54:26.131Z,13.55
2018-05-26T02:55:26.107Z,13.57
2018-05-26T02:56:26.080Z,13.57
2018-05-26T02:57:26.054Z,13.44
2018-05-26T02:58:26.034Z,13.53
2018-05-26T02:59:26.003Z,13.54
2018-05-26T03:00:25.978Z,13.55
2018-05-26T03:01:25.953Z,13.53
2018-05-26T03:02:25.931Z,13.50
2018-05-26T03:03:25.906Z,13.57
2018-05-26T03:04:25.916Z,13.55
2018-05-26T03:05:26.001Z,13.61
2018-05-26T03:06:25.825Z,13.53
2018-05-26T03:07:25.800Z,13.46
2018-05-26T03:08:25.775Z,13.44
2018-05-26T03:09:25.752Z,13.53
2018-05-26T03:10:25.723Z,13.54
2018-05-26T03:11:25.698Z,13.57
2018-05-26T03:12:25.678Z,13.53
2018-05-26T03:13:25.652Z,13.57
2018-05-26T03:14:25.634Z,13.59
2018-05-26T03:15:25.604Z,13.59
2018-05-26T03:16:25.572Z,13.55
2018-05-26T03:17:25.550Z,13.54
2018-05-26T03:18:25.521Z,13.61
2018-05-26T03:19:25.573Z,13.62
2018-05-26T03:20:25.470Z,13.57
2018-05-26T03:21:25.446Z,13.57
2018-05-26T03:22:25.423Z,13.54
2018-05-26T03:23:25.399Z,13.48
2018-05-26T03:24:25.369Z,13.62
2018-05-26T03:25:25.346Z,13.61
2018-05-26T03:26:25.317Z,13.66
2018-05-26T03:27:25.293Z,13.59
2018-05-26T03:28:25.268Z,13.66
2018-05-26T03:29:25.243Z,13.63
2018-05-26T03:30:25.217Z,13.66
2018-05-26T03:31:25.194Z,13.63
2018-05-26T03:32:25.168Z,13.57
2018-05-26T03:33:25.143Z,13.57
2018-05-26T03:34:25.119Z,13.65
2018-05-26T03:35:25.090Z,13.63
2018-05-26T03:36:25.103Z,13.65
2018-05-26T03:37:25.045Z,13.66
2018-05-26T03:38:25.014Z,13.59
2018-05-26T03:39:24.999Z,13.61
2018-05-26T03:40:24.967Z,13.65
2018-05-26T03:41:24.956Z,13.72
2018-05-26T03:42:24.916Z,13.69
2018-05-26T03:43:24.895Z,13.65
2018-05-26T03:44:24.863Z,13.73
2018-05-26T03:45:24.838Z,13.71
2018-05-26T03:46:24.812Z,13.83
2018-05-26T03:47:24.787Z,13.96
2018-05-26T03:48:24.761Z,14.08
2018-05-26T03:49:24.737Z,14.17
2018-05-26T03:50:24.711Z,14.26
2018-05-26T03:51:24.686Z,14.23
2018-05-26T03:52:24.673Z,14.30
2018-05-26T03:53:24.638Z,14.35
2018-05-26T03:54:24.613Z,14.49
2018-05-26T03:55:24.587Z,14.46
2018-05-26T03:56:24.562Z,14.56
2018-05-26T03:57:24.537Z,14.42
2018-05-26T03:58:24.516Z,14.31
2018-05-26T03:59:24.489Z,14.53
2018-05-26T04:01:06.816Z,14.56
2018-05-26T04:02:06.592Z,14.57
2018-05-26T04:03:49.727Z,14.72
2018-05-26T04:04:48.691Z,14.86
2018-05-26T04:05:48.718Z,14.72
2018-05-26T04:06:48.644Z,14.79
2018-05-26T04:07:48.619Z,14.90
2018-05-26T04:08:48.597Z,14.93
2018-05-26T04:09:48.569Z,14.83
2018-05-26T04:10:48.545Z,14.69
2018-05-26T04:11:48.522Z,14.71
2018-05-26T04:12:48.497Z,14.69
2018-05-26T04:13:48.472Z,14.82
2018-05-26T04:14:48.452Z,14.75
2018-05-26T04:15:48.428Z,14.95
2018-05-26T04:16:48.400Z,14.95
2018-05-26T04:17:48.376Z,14.93
2018-05-26T04:18:48.353Z,14.82
2018-05-26T04:19:48.329Z,14.79
2018-05-26T04:20:48.304Z,14.97
2018-05-26T04:21:48.281Z,14.98
2018-05-26T04:22:48.257Z,14.93
2018-05-26T04:23:48.234Z,14.93
2018-05-26T04:24:48.210Z,15.11
2018-05-26T04:25:48.186Z,15.01
2018-05-26T04:26:48.366Z,15.09
2018-05-26T04:27:48.142Z,15.11
2018-05-26T04:28:48.115Z,15.23
2018-05-26T04:29:48.097Z,15.11
2018-05-26T04:30:48.082Z,15.22
2018-05-26T04:31:48.057Z,15.19
2018-05-26T04:32:48.035Z,15.11
2018-05-26T04:33:47.999Z,15.34
2018-05-26T04:34:47.976Z,15.49
2018-05-26T04:35:47.952Z,15.56
2018-05-26T04:36:47.929Z,15.85
2018-05-26T04:37:47.908Z,15.84
2018-05-26T04:38:47.884Z,15.89
2018-05-26T04:39:47.869Z,15.81
2018-05-26T04:40:48.443Z,15.96
2018-05-26T04:41:48.017Z,16.04
2018-05-26T04:42:47.791Z,16.23
2018-05-26T04:43:47.769Z,16.48
2018-05-26T04:44:47.779Z,16.48
2018-05-26T04:45:47.723Z,16.22
2018-05-26T04:46:47.706Z,16.40
2018-05-26T04:47:47.881Z,16.70
2018-05-26T04:48:47.656Z,17.00
2018-05-26T04:49:47.646Z,16.96
2018-05-26T04:50:47.611Z,16.99
2018-05-26T04:51:47.792Z,17.17
2018-05-26T04:52:47.566Z,17.53
2018-05-26T04:53:47.544Z,17.62
2018-05-26T04:54:47.522Z,17.84
2018-05-26T04:55:47.500Z,17.94
2018-05-26T04:56:47.477Z,17.83
2018-05-26T04:57:47.456Z,18.28
2018-05-26T04:58:47.441Z,18.75
2018-05-26T04:59:47.413Z,18.25
2018-05-26T05:00:47.396Z,18.17
2018-05-26T05:01:47.371Z,18.32
2018-05-26T05:02:47.550Z,18.10
2018-05-26T05:03:47.326Z,18.01
2018-05-26T05:04:47.307Z,17.73
2018-05-26T05:05:47.284Z,17.65
2018-05-26T05:06:47.265Z,17.40
2018-05-26T05:07:47.244Z,17.40
2018-05-26T05:08:47.219Z,17.71
2018-05-26T05:09:47.399Z,17.71
2018-05-26T05:10:47.176Z,17.94
2018-05-26T05:11:47.155Z,18.28
2018-05-26T05:12:47.141Z,18.16
2018-05-26T05:13:47.112Z,17.98
2018-05-26T05:14:47.092Z,18.32
2018-05-26T05:15:47.071Z,18.38
2018-05-26T05:16:47.058Z,18.36
2018-05-26T05:17:47.029Z,18.44
2018-05-26T05:18:47.010Z,18.59
2018-05-26T05:19:47.016Z,18.29
2018-05-26T05:20:46.973Z,18.32
2018-05-26T05:21:46.946Z,17.91
2018-05-26T05:22:46.926Z,18.36
2018-05-26T05:23:46.905Z,18.66
2018-05-26T05:24:47.089Z,19.40
2018-05-26T05:25:46.864Z,19.46
2018-05-26T05:26:46.863Z,19.55
2018-05-26T05:27:47.624Z,19.61
2018-05-26T05:28:47.007Z,18.90
2018-05-26T05:29:46.785Z,18.59
2018-05-26T05:30:46.763Z,18.60
2018-05-26T05:31:46.744Z,18.57
2018-05-26T05:32:46.722Z,18.35
2018-05-26T05:33:46.702Z,18.72
2018-05-26T05:34:46.682Z,19.10
2018-05-26T05:35:46.662Z,19.24
2018-05-26T05:36:46.641Z,19.80
2018-05-26T05:37:46.622Z,20.16
2018-05-26T05:38:46.607Z,20.19
2018-05-26T05:39:46.583Z,18.89
2018-05-26T05:40:46.567Z,19.39
2018-05-26T05:41:46.543Z,19.75
2018-05-26T05:42:46.523Z,19.62
2018-05-26T05:43:46.506Z,19.61
2018-05-26T05:44:46.488Z,19.90
2018-05-26T05:45:46.465Z,19.49
2018-05-26T05:46:46.448Z,19.12
2018-05-26T05:47:46.427Z,18.99
2018-05-26T05:48:46.406Z,19.13
2018-05-26T05:49:46.391Z,19.20
2018-05-26T05:50:46.571Z,20.01
2018-05-26T05:51:46.351Z,20.04
2018-05-26T05:52:46.330Z,19.13
2018-05-26T05:53:46.311Z,19.16
2018-05-26T05:54:46.300Z,19.21
2018-05-26T05:55:46.274Z,19.50
2018-05-26T05:56:46.254Z,19.52
2018-05-26T05:57:46.237Z,19.50
2018-05-26T05:58:46.217Z,19.58
2018-05-26T05:59:46.409Z,19.85
2018-05-26T06:00:46.181Z,19.78
2018-05-26T06:01:46.161Z,19.10
2018-05-26T06:02:46.143Z,18.83
2018-05-26T06:03:46.124Z,18.94
2018-05-26T06:04:46.307Z,18.90
2018-05-26T06:05:46.087Z,19.01
2018-05-26T06:06:46.068Z,18.82
2018-05-26T06:07:46.258Z,18.54
2018-05-26T06:08:46.033Z,18.74
2018-05-26T06:09:46.016Z,18.75
2018-05-26T06:11:28.356Z,19.39
2018-05-26T06:12:28.131Z,19.53
2018-05-26T06:13:28.113Z,20.34
2018-05-26T06:14:28.297Z,20.91
2018-05-26T06:15:28.291Z,20.68
2018-05-26T06:16:28.057Z,20.61
2018-05-26T06:17:28.040Z,20.17
2018-05-26T06:18:28.021Z,19.76
2018-05-26T06:19:28.205Z,20.10
2018-05-26T06:20:27.984Z,20.75
2018-05-26T06:21:27.966Z,21.46
2018-05-26T06:22:28.151Z,22.21
2018-05-26T06:23:28.133Z,22.15
2018-05-26T06:24:28.115Z,22.56
2018-05-26T06:25:27.894Z,22.74
2018-05-26T06:26:27.940Z,22.85
2018-05-26T06:27:27.859Z,22.35
2018-05-26T06:28:27.841Z,22.36
2018-05-26T06:29:28.025Z,22.69
2018-05-26T06:30:28.010Z,22.46
2018-05-26T06:33:10.133Z,23.00
2018-05-26T06:34:10.116Z,23.49
2018-05-26T06:35:10.096Z,23.69
2018-05-26T06:36:10.083Z,23.72
2018-05-26T06:37:10.063Z,24.19
2018-05-26T06:38:09.842Z,23.96
2018-05-26T06:39:10.028Z,24.34
2018-05-26T06:40:09.810Z,24.48
2018-05-26T06:41:09.793Z,24.55
2018-05-26T06:42:09.777Z,25.14
2018-05-26T06:43:09.967Z,24.77
2018-05-26T06:44:09.744Z,24.61
2018-05-26T06:45:09.730Z,24.67
2018-05-26T06:46:09.914Z,25.30
2018-05-26T06:47:09.898Z,25.42
2018-05-26T06:48:09.680Z,25.60
2018-05-26T06:49:09.663Z,25.79
2018-05-26T06:50:09.650Z,26.13
2018-05-26T06:51:09.640Z,26.12
2018-05-26T06:52:12.441Z,25.81
2018-05-26T06:53:09.802Z,25.81
2018-05-26T06:54:09.792Z,26.13
2018-05-26T06:55:09.571Z,25.60
2018-05-26T06:56:09.758Z,25.34
2018-05-26T06:57:10.547Z,26.06
2018-05-26T06:58:09.727Z,26.32
2018-05-26T06:59:09.716Z,26.16
2018-05-26T07:00:51.859Z,26.29
2018-05-26T07:01:51.645Z,26.01
2018-05-26T07:02:51.827Z,26.16
2018-05-26T07:03:51.813Z,25.75
2018-05-26T07:04:51.798Z,24.90
2018-05-26T07:05:51.579Z,24.79
2018-05-26T07:06:51.768Z,25.02
2018-05-26T07:07:51.753Z,25.35
2018-05-26T07:08:51.537Z,25.39
2018-05-26T07:09:51.522Z,25.69
2018-05-26T07:10:51.509Z,25.34
2018-05-26T07:11:51.500Z,25.61
2018-05-26T07:28:19.187Z,25.96
2018-05-26T07:29:18.964Z,26.11
2018-05-26T07:30:18.951Z,26.59
2018-05-26T07:31:18.937Z,26.20
2018-05-26T07:33:05.124Z,25.85
2018-05-26T07:34:01.123Z,25.82
2018-05-26T07:35:01.263Z,26.17
2018-05-26T07:36:01.046Z,26.11
2018-05-26T07:37:01.032Z,26.72
2018-05-26T07:38:01.016Z,26.76
2018-05-26T07:39:01.210Z,26.44
2018-05-26T07:40:00.993Z,26.24
2018-05-26T07:41:00.974Z,25.93
2018-05-26T07:42:00.962Z,25.41
2018-05-26T07:43:00.948Z,25.41
2018-05-26T07:44:01.138Z,25.89
2018-05-26T07:45:00.928Z,26.34
2018-05-26T07:46:01.112Z,26.49
2018-05-26T07:47:01.099Z,26.79
2018-05-26T07:50:49.731Z,25.39
2018-05-26T07:51:49.518Z,25.85
2018-05-26T07:52:49.499Z,25.78
2018-05-26T07:57:20.489Z,26.69
2018-05-26T07:58:20.354Z,25.82
2018-05-26T07:59:20.262Z,25.61
2018-05-26T08:00:21.263Z,25.83
2018-05-26T08:01:20.439Z,25.86
2018-05-26T08:02:20.223Z,26.57
2018-05-26T08:03:20.413Z,27.21
2018-05-26T08:04:20.200Z,27.28
2018-05-26T08:05:20.241Z,27.02
2018-05-26T08:06:20.375Z,26.87
2018-05-26T08:07:20.179Z,25.56
2018-05-26T08:08:20.154Z,24.53
2018-05-26T08:09:20.139Z,24.82
2018-05-26T08:10:20.134Z,24.98
2018-05-26T08:11:20.113Z,25.78
2018-05-26T08:12:20.101Z,26.34
2018-05-26T08:13:20.089Z,26.79
2018-05-26T08:14:20.076Z,27.38
2018-05-26T08:15:20.064Z,27.81
2018-05-26T08:16:20.056Z,26.73
2018-05-26T08:17:20.058Z,26.73
2018-05-26T08:18:20.231Z,27.18
2018-05-26T08:19:20.018Z,27.61
2018-05-26T08:20:20.012Z,27.86
2018-05-26T08:21:19.994Z,28.18
2018-05-26T08:22:19.982Z,28.18
2018-05-26T08:23:19.971Z,28.50
2018-05-26T08:24:19.959Z,29.08
2018-05-26T08:25:19.948Z,29.26
2018-05-26T08:26:19.936Z,28.83
2018-05-26T08:27:19.968Z,28.39
2018-05-26T08:28:19.915Z,27.52
2018-05-26T08:29:19.903Z,27.01
2018-05-26T08:30:19.892Z,26.35
2018-05-26T08:31:19.883Z,26.47
2018-05-26T08:32:19.870Z,26.24
2018-05-26T08:33:19.859Z,26.23
2018-05-26T08:34:19.852Z,27.08
2018-05-26T08:35:19.837Z,26.20
2018-05-26T08:36:19.827Z,26.61
2018-05-26T08:37:19.819Z,26.98
2018-05-26T08:38:19.804Z,26.17
2018-05-26T08:39:19.793Z,26.08
2018-05-26T08:40:19.783Z,26.13
2018-05-26T08:41:19.773Z,26.50
2018-05-26T08:42:19.762Z,26.78
2018-05-26T08:43:19.751Z,27.52
2018-05-26T08:44:19.749Z,27.45
2018-05-26T08:45:19.730Z,27.35
2018-05-26T08:46:19.717Z,27.50
2018-05-26T08:47:19.709Z,28.23
2018-05-26T08:48:19.696Z,28.79
2018-05-26T08:49:19.688Z,28.83
2018-05-26T08:51:02.041Z,29.26
2018-05-26T08:52:02.029Z,29.07
2018-05-26T08:53:02.029Z,28.85
2018-05-26T08:54:01.806Z,29.62
2018-05-26T08:55:01.796Z,28.25
2018-05-26T08:56:01.788Z,28.79
2018-05-26T08:57:01.981Z,28.91
2018-05-26T08:58:01.765Z,28.88
2018-05-26T08:59:02.361Z,28.55
2018-05-26T09:00:01.744Z,28.38
2018-05-26T09:01:01.737Z,28.33
2018-05-26T09:02:01.725Z,28.79
2018-05-26T09:03:01.717Z,28.54
2018-05-26T09:04:01.704Z,28.82
2018-05-26T09:05:01.700Z,29.76
2018-05-26T09:06:01.889Z,29.73
2018-05-26T09:07:01.675Z,29.55
2018-05-26T09:08:01.867Z,28.74
2018-05-26T09:09:01.657Z,27.93
2018-05-26T09:10:01.650Z,26.24
2018-05-26T09:11:01.637Z,26.17
2018-05-26T09:12:01.629Z,27.01
2018-05-26T09:13:01.616Z,27.61
2018-05-26T09:14:01.607Z,27.34
2018-05-26T09:15:01.608Z,27.25
2018-05-26T09:16:01.587Z,26.93
2018-05-26T09:17:01.577Z,26.90
2018-05-26T09:18:01.570Z,27.49
2018-05-26T09:19:01.558Z,28.48
2018-05-26T09:20:01.547Z,29.10
2018-05-26T09:21:01.537Z,29.29
2018-05-26T09:22:01.527Z,29.23
2018-05-26T09:23:01.519Z,28.50
2018-05-26T09:24:01.514Z,28.42
2018-05-26T09:25:01.517Z,28.82
2018-05-26T09:26:01.492Z,28.91
2018-05-26T09:27:01.479Z,29.11
2018-05-26T09:28:01.470Z,29.57
2018-05-26T09:29:01.458Z,29.58
2018-05-26T09:30:01.453Z,29.12
2018-05-26T09:31:01.440Z,29.51
2018-05-26T09:32:01.430Z,29.62
2018-05-26T09:33:01.420Z,29.23
2018-05-26T09:34:01.613Z,27.45
2018-05-26T09:35:01.404Z,27.86
2018-05-26T09:36:01.392Z,28.76
2018-05-26T09:37:01.383Z,28.82
2018-05-26T09:38:01.374Z,28.97
2018-05-26T09:39:01.366Z,28.42
2018-05-26T09:40:01.365Z,28.25
2018-05-26T09:41:01.345Z,27.61
2018-05-26T09:42:01.344Z,27.76
2018-05-26T09:43:01.328Z,28.09
2018-05-26T09:44:01.319Z,28.54
2018-05-26T09:45:01.310Z,28.43
2018-05-26T09:46:01.299Z,28.50
2018-05-26T09:47:01.290Z,28.25
2018-05-26T09:48:01.281Z,28.18
2018-05-26T09:49:01.273Z,28.35
2018-05-26T09:50:01.262Z,28.09
2018-05-26T09:51:01.254Z,28.76
2018-05-26T09:52:01.247Z,29.39
2018-05-26T09:53:01.236Z,29.99
2018-05-26T09:54:01.226Z,29.88
2018-05-26T09:55:01.216Z,30.29
2018-05-26T09:56:01.218Z,30.57
2018-05-26T09:57:01.197Z,29.73
2018-05-26T09:58:01.239Z,28.92
2018-05-26T09:59:01.187Z,29.18
2018-05-26T10:00:01.170Z,28.45
2018-05-26T10:01:01.171Z,29.18
2018-05-26T10:02:01.158Z,28.89
2018-05-26T10:03:01.144Z,28.61
2018-05-26T10:04:01.136Z,28.61
2018-05-26T10:05:01.127Z,28.52
2018-05-26T10:06:01.122Z,28.69
2018-05-26T10:07:01.109Z,29.32
2018-05-26T10:08:01.100Z,29.18
2018-05-26T10:09:01.091Z,29.74
2018-05-26T10:10:01.090Z,30.28
2018-05-26T10:11:01.074Z,30.72
2018-05-26T10:12:01.067Z,30.63
2018-05-26T10:13:01.056Z,31.10
2018-05-26T10:14:01.048Z,30.86
2018-05-26T10:15:01.041Z,30.53
2018-05-26T10:16:01.034Z,30.45
2018-05-26T10:17:01.029Z,29.33
2018-05-26T10:18:01.015Z,29.48
2018-05-26T10:19:01.013Z,30.49
2018-05-26T10:20:01.040Z,29.71
2018-05-26T10:21:00.989Z,29.74
2018-05-26T10:22:00.981Z,30.06
2018-05-26T10:23:00.973Z,29.97
2018-05-26T10:24:00.967Z,29.32
2018-05-26T10:25:00.955Z,29.42
2018-05-26T10:26:00.948Z,30.34
2018-05-26T10:27:00.939Z,29.71
2018-05-26T10:28:00.931Z,29.42
2018-05-26T10:29:00.922Z,29.26
2018-05-26T10:30:00.938Z,29.67
2018-05-26T10:31:00.907Z,30.18
2018-05-26T10:32:00.901Z,30.30
2018-05-26T10:33:00.890Z,30.16
2018-05-26T10:34:00.882Z,30.56
2018-05-26T10:35:00.874Z,30.08
2018-05-26T10:36:00.867Z,29.66
2018-05-26T10:37:00.858Z,29.30
2018-05-26T10:38:00.851Z,29.10
2018-05-26T10:39:00.876Z,29.35
2018-05-26T10:40:00.834Z,29.32
2018-05-26T10:41:00.830Z,28.55
2018-05-26T10:42:00.822Z,28.64
2018-05-26T10:43:00.812Z,28.85
2018-05-26T10:44:00.801Z,29.15
2018-05-26T10:45:00.794Z,30.10
2018-05-26T10:46:00.786Z,30.26
2018-05-26T10:47:00.778Z,29.85
2018-05-26T10:48:00.769Z,29.64
2018-05-26T10:49:00.764Z,30.11
2018-05-26T10:50:00.796Z,29.60
2018-05-26T10:51:00.746Z,30.04
2018-05-26T10:52:00.744Z,30.67
2018-05-26T10:53:00.730Z,31.18
2018-05-26T10:54:00.722Z,31.03
2018-05-26T10:55:00.717Z,31.37
2018-05-26T10:56:00.789Z,31.10
2018-05-26T10:57:00.748Z,31.53
2018-05-26T10:58:00.693Z,31.67
2018-05-26T10:59:00.684Z,31.27
2018-05-26T11:00:00.677Z,30.51
2018-05-26T11:01:00.669Z,30.26
2018-05-26T11:02:00.661Z,30.16
2018-05-26T11:03:00.817Z,29.91
2018-05-26T11:04:00.647Z,29.63
2018-05-26T11:05:00.639Z,30.34
2018-05-26T11:06:00.636Z,30.57
2018-05-26T11:07:00.627Z,30.98
2018-05-26T11:08:00.619Z,31.47
2018-05-26T11:09:00.613Z,31.88
2018-05-26T11:10:00.608Z,31.74
2018-05-26T11:11:00.599Z,32.50
2018-05-26T11:12:00.591Z,31.84
2018-05-26T11:13:00.587Z,31.34
2018-05-26T11:14:00.578Z,30.98
2018-05-26T11:15:00.571Z,31.19
2018-05-26T11:16:00.564Z,30.96
2018-05-26T11:17:00.560Z,31.16
2018-05-26T11:18:00.783Z,30.42
2018-05-26T11:19:00.598Z,29.55
2018-05-26T11:20:00.537Z,30.42
2018-05-26T11:21:00.531Z,31.12
2018-05-26T11:22:00.525Z,31.87
2018-05-26T11:23:00.519Z,31.76
2018-05-26T11:24:00.837Z,31.27
2018-05-26T11:25:00.506Z,31.42
2018-05-26T11:26:00.520Z,30.83
2018-05-26T11:27:00.493Z,30.97
2018-05-26T11:28:00.486Z,30.98
2018-05-26T11:29:00.551Z,31.16
2018-05-26T11:30:00.473Z,31.42
2018-05-26T11:31:00.506Z,31.57
2018-05-26T11:32:00.461Z,31.37
2018-05-26T11:33:00.604Z,30.08
2018-05-26T11:34:00.448Z,30.83
2018-05-26T11:35:00.443Z,30.68
2018-05-26T11:36:00.435Z,31.18
2018-05-26T11:37:00.428Z,29.47
2018-05-26T11:38:00.428Z,29.84
2018-05-26T11:39:00.420Z,30.67
2018-05-26T11:40:00.409Z,30.48
2018-05-26T11:41:00.403Z,29.57
2018-05-26T11:42:00.397Z,29.64
2018-05-26T11:43:00.391Z,30.32
2018-05-26T11:44:00.387Z,30.42
2018-05-26T11:45:00.377Z,29.62
2018-05-26T11:46:00.375Z,28.51
2018-05-26T11:47:00.365Z,28.76
2018-05-26T11:48:00.357Z,29.44
2018-05-26T11:49:00.351Z,30.21
2018-05-26T11:50:00.345Z,29.69
2018-05-26T11:51:00.340Z,30.21
2018-05-26T11:52:00.331Z,30.30
2018-05-26T11:53:00.325Z,29.62
2018-05-26T11:54:00.323Z,29.14
2018-05-26T11:55:00.315Z,29.88
2018-05-26T11:56:00.311Z,30.08
2018-05-26T11:57:00.298Z,30.03
2018-05-26T11:58:00.293Z,28.94
2018-05-26T11:59:00.286Z,29.70
2018-05-26T12:00:00.281Z,30.15
2018-05-26T12:01:00.274Z,30.88
2018-05-26T12:02:00.326Z,31.03
2018-05-26T12:03:00.263Z,29.91
2018-05-26T12:04:00.253Z,29.92
2018-05-26T12:05:00.245Z,30.40
2018-05-26T12:06:00.239Z,30.66
2018-05-26T12:07:00.240Z,31.01
2018-05-26T12:08:00.226Z,31.30
2018-05-26T12:09:00.220Z,30.63
2018-05-26T12:10:00.214Z,30.57
2018-05-26T12:11:00.208Z,30.53
2018-05-26T12:12:00.201Z,30.25
2018-05-26T12:13:00.195Z,30.70
2018-05-26T12:14:00.189Z,31.09
2018-05-26T12:15:00.183Z,32.13
2018-05-26T12:16:00.176Z,31.82
2018-05-26T12:17:00.172Z,29.86
2018-05-26T12:18:00.165Z,29.08
2018-05-26T12:19:00.159Z,29.10
2018-05-26T12:20:00.153Z,29.36
2018-05-26T12:21:00.147Z,29.36
2018-05-26T12:22:00.141Z,28.83
2018-05-26T12:23:00.139Z,28.95
2018-05-26T12:24:00.128Z,29.03
2018-05-26T12:25:00.121Z,29.32
2018-05-26T12:26:00.115Z,28.94
2018-05-26T12:27:00.109Z,29.12
2018-05-26T12:28:00.103Z,29.71
2018-05-26T12:29:00.097Z,29.73
2018-05-26T12:30:00.090Z,29.60
2018-05-26T12:31:00.092Z,29.26
2018-05-26T12:32:00.075Z,29.36
2018-05-26T12:33:00.066Z,29.54
2018-05-26T12:34:00.116Z,29.36
2018-05-26T12:35:00.053Z,29.18
2018-05-26T12:36:00.045Z,29.25
2018-05-26T12:37:00.037Z,29.33
2018-05-26T12:38:00.035Z,29.17
2018-05-26T12:39:00.026Z,29.18
2018-05-26T12:40:00.054Z,29.52
2018-05-26T12:41:00.007Z,29.35
2018-05-26T12:42:00.005Z,29.63
2018-05-26T12:42:59.992Z,29.25
2018-05-26T12:43:59.986Z,28.25
2018-05-26T12:44:59.977Z,27.76
2018-05-26T12:45:59.969Z,27.88
2018-05-26T12:46:59.962Z,28.65
2018-05-26T12:47:59.953Z,29.20
2018-05-26T12:48:59.945Z,28.80
2018-05-26T12:49:59.937Z,28.95
2018-05-26T12:50:59.934Z,28.80
2018-05-26T12:51:59.925Z,28.85
2018-05-26T12:52:59.913Z,29.08
2018-05-26T12:53:59.904Z,28.92
2018-05-26T12:54:59.895Z,28.61
2018-05-26T12:55:59.887Z,28.91
2018-05-26T12:56:59.881Z,28.42
2018-05-26T12:57:59.869Z,28.28
2018-05-26T12:58:59.859Z,27.91
2018-05-26T12:59:59.849Z,28.45
2018-05-26T13:00:59.841Z,29.20
2018-05-26T13:01:59.831Z,29.18
2018-05-26T13:02:59.822Z,28.98
2018-05-26T13:03:59.812Z,27.83
2018-05-26T13:04:59.810Z,28.05
2018-05-26T13:05:59.794Z,28.60
2018-05-26T13:06:59.790Z,29.18
2018-05-26T13:07:59.777Z,28.79
2018-05-26T13:08:59.770Z,28.23
2018-05-26T13:09:59.755Z,27.61
2018-05-26T13:10:59.747Z,27.50
2018-05-26T13:11:59.734Z,27.58
2018-05-26T13:12:59.723Z,28.25
2018-05-26T13:13:59.717Z,28.50
2018-05-26T13:14:59.707Z,28.57
2018-05-26T13:15:59.692Z,28.65
2018-05-26T13:16:59.683Z,28.73
2018-05-26T13:17:59.675Z,28.70
2018-05-26T13:18:59.660Z,28.43
2018-05-26T13:19:59.649Z,28.45